Time;durP1;ratioP1;P1;durP2;ratioP2;P2;SDS_P1;SDS_P2;PMS_P1;PMS_P2;Temp;Humidity;BMP_temperature;BMP_pressure;BME280_temperature;BME280_humidity;BME280_pressure;Samples;Min_cycle;Max_cycle;Signal;HPM_P1;HPM_P2
2022/12/04 00:00:50;;;;;;;52.40;24.08;;;0.90;99.90;;;;;;4379691;28;10000705;-77
2022/12/04 00:03:16;;;;;;;52.72;24.58;;;1.00;99.90;;;;;;5078158;28;20070;-77
2022/12/04 00:05:41;;;;;;;49.80;23.67;;;0.90;99.90;;;;;;5080651;28;20031;-77
2022/12/04 00:08:07;;;;;;;54.72;24.80;;;0.90;99.90;;;;;;5077697;28;20370;-77
2022/12/04 00:10:33;;;;;;;50.30;24.85;;;0.90;99.90;;;;;;5085531;28;20017;-77
2022/12/04 00:12:58;;;;;;;48.22;23.40;;;0.90;99.90;;;;;;5079959;28;20024;-77
2022/12/04 00:15:24;;;;;;;50.58;24.63;;;1.00;99.90;;;;;;5081756;28;20031;-78
2022/12/04 00:17:50;;;;;;;46.22;22.73;;;0.90;99.90;;;;;;5086109;28;20036;-78
2022/12/04 00:20:15;;;;;;;48.45;23.20;;;1.00;99.90;;;;;;5071744;28;20105;-77
2022/12/04 00:22:41;;;;;;;47.92;23.05;;;1.00;99.90;;;;;;5078994;28;20016;-77
2022/12/04 00:25:07;;;;;;;48.72;23.15;;;1.00;99.90;;;;;;5075693;28;20620;-77
2022/12/04 00:27:33;;;;;;;48.83;22.90;;;1.00;99.90;;;;;;5083811;28;20024;-77
2022/12/04 00:29:58;;;;;;;45.97;22.65;;;1.00;99.90;;;;;;5082704;28;20051;-77
2022/12/04 00:32:24;;;;;;;44.33;20.80;;;1.00;99.90;;;;;;5080682;28;20512;-77
2022/12/04 00:34:52;;;;;;;46.05;22.02;;;1.00;99.90;;;;;;5081576;28;20024;-77
2022/12/04 00:37:18;;;;;;;44.80;21.65;;;1.00;99.90;;;;;;5076897;28;20046;-77
2022/12/04 00:39:44;;;;;;;44.42;20.95;;;1.00;99.90;;;;;;5086240;28;20017;-77
2022/12/04 00:42:09;;;;;;;41.00;20.35;;;1.00;99.90;;;;;;5083959;28;20687;-77
2022/12/04 00:44:35;;;;;;;41.20;20.10;;;1.00;99.90;;;;;;5079423;28;20085;-77
2022/12/04 00:47:00;;;;;;;38.22;19.33;;;1.00;99.90;;;;;;5080873;28;20129;-77
2022/12/04 00:49:26;;;;;;;39.10;19.80;;;1.00;99.90;;;;;;5081563;28;20432;-77
2022/12/04 00:51:51;;;;;;;36.50;18.48;;;1.10;99.90;;;;;;5083553;28;20024;-76
2022/12/04 00:54:17;;;;;;;37.75;18.33;;;1.00;99.90;;;;;;5076466;28;20035;-77
2022/12/04 00:56:43;;;;;;;30.10;15.85;;;1.10;99.90;;;;;;5081489;28;20044;-77
2022/12/04 00:59:09;;;;;;;27.33;14.57;;;1.10;99.90;;;;;;5082767;28;20062;-77
2022/12/04 01:01:35;;;;;;;25.92;14.38;;;1.10;99.90;;;;;;5081218;28;20023;-77
2022/12/04 01:04:00;;;;;;;24.05;13.73;;;1.10;99.90;;;;;;5078428;28;20028;-76
2022/12/04 01:06:32;;;;;;;23.75;13.15;;;1.00;99.90;;;;;;5079124;28;20998;-76
2022/12/04 01:08:58;;;;;;;20.67;11.65;;;1.00;99.90;;;;;;5075091;28;20105;-77
2022/12/04 01:11:26;;;;;;;21.52;11.55;;;1.00;99.90;;;;;;5079643;28;20017;-77
2022/12/04 01:13:52;;;;;;;19.58;11.48;;;1.10;99.90;;;;;;5082742;28;20031;-77
2022/12/04 01:16:24;;;;;;;22.02;11.27;;;1.10;99.90;;;;;;5075672;28;20043;-77
2022/12/04 01:18:50;;;;;;;21.88;12.10;;;1.10;99.90;;;;;;5082615;28;20039;-77
2022/12/04 01:21:17;;;;;;;18.85;10.23;;;1.10;99.90;;;;;;5083179;28;20032;-77
2022/12/04 01:23:43;;;;;;;18.92;10.40;;;1.20;99.90;;;;;;5070321;28;20055;-77
2022/12/04 01:26:08;;;;;;;19.98;10.88;;;1.10;99.90;;;;;;5078318;28;20089;-77
2022/12/04 01:28:35;;;;;;;17.70;9.93;;;1.20;99.90;;;;;;5082422;28;20051;-78
2022/12/04 01:31:09;;;;;;;23.27;12.40;;;1.10;99.90;;;;;;5074807;28;20097;-78
2022/12/04 01:33:36;;;;;;;27.17;14.20;;;1.20;99.90;;;;;;5081161;28;20028;-77
2022/12/04 01:36:04;;;;;;;21.95;12.00;;;1.20;99.90;;;;;;5082150;28;20036;-77
2022/12/04 01:38:29;;;;;;;27.52;14.10;;;1.20;99.90;;;;;;5082552;28;20031;-77
2022/12/04 01:40:56;;;;;;;28.00;14.05;;;1.30;99.90;;;;;;5081080;28;20036;-77
2022/12/04 01:43:22;;;;;;;24.48;12.77;;;1.20;99.90;;;;;;5080971;28;20036;-77
2022/12/04 01:45:52;;;;;;;23.38;12.77;;;1.20;99.90;;;;;;5081039;28;20024;-77
2022/12/04 01:48:21;;;;;;;26.02;14.25;;;1.20;99.90;;;;;;5076811;28;20292;-77
2022/12/04 01:50:50;;;;;;;32.63;16.42;;;1.10;99.90;;;;;;5078796;28;20036;-77
2022/12/04 01:53:17;;;;;;;33.35;16.33;;;1.20;99.90;;;;;;5077060;28;20025;-77
2022/12/04 01:55:44;;;;;;;32.55;16.75;;;1.20;99.90;;;;;;5080422;28;20897;-77
2022/12/04 01:58:10;;;;;;;28.98;15.50;;;1.20;99.90;;;;;;5082391;28;20074;-77
2022/12/04 02:00:36;;;;;;;29.02;15.10;;;1.20;99.90;;;;;;5079703;28;20063;-77
2022/12/04 02:03:01;;;;;;;30.45;16.23;;;1.10;99.90;;;;;;5079009;28;20046;-77
2022/12/04 02:05:27;;;;;;;27.83;14.55;;;1.10;99.90;;;;;;5076142;28;20032;-77
2022/12/04 02:07:57;;;;;;;27.88;14.43;;;1.00;99.90;;;;;;5082515;28;20032;-76
2022/12/04 02:10:37;;;;;;;24.85;12.82;;;1.10;99.90;;;;;;5081543;28;20103;-77
2022/12/04 02:13:28;;;;;;;24.13;13.15;;;1.10;99.90;;;;;;5072610;28;20128;-77
2022/12/04 02:16:13;;;;;;;22.33;12.32;;;1.20;99.90;;;;;;5075749;28;20042;-77
2022/12/04 02:18:54;;;;;;;23.00;11.98;;;1.20;99.90;;;;;;5079262;28;20046;-77
2022/12/04 02:21:32;;;;;;;21.88;11.82;;;1.20;99.90;;;;;;5081568;28;20618;-77
2022/12/04 02:24:25;;;;;;;23.35;12.52;;;1.20;99.90;;;;;;5081999;28;20059;-77
2022/12/04 02:26:57;;;;;;;25.08;13.05;;;1.20;99.90;;;;;;5076747;28;20031;-77
2022/12/04 02:29:39;;;;;;;25.63;12.35;;;1.20;99.90;;;;;;5080008;28;20031;-77
2022/12/04 02:32:18;;;;;;;18.77;9.75;;;1.20;99.90;;;;;;5075569;28;21804;-77
2022/12/04 02:35:00;;;;;;;23.38;12.55;;;1.20;99.90;;;;;;5081357;28;20467;-77
2022/12/04 02:37:36;;;;;;;22.70;12.70;;;1.20;99.90;;;;;;5080879;28;20086;-77
2022/12/04 02:40:15;;;;;;;23.75;12.65;;;1.20;99.90;;;;;;5081908;28;20028;-77
2022/12/04 02:42:46;;;;;;;24.85;12.35;;;1.20;99.90;;;;;;5076267;28;20085;-76
2022/12/04 02:45:19;;;;;;;24.98;13.07;;;1.20;99.90;;;;;;5078050;28;20040;-77
2022/12/04 02:47:46;;;;;;;25.75;12.90;;;1.30;99.90;;;;;;5078773;28;20068;-77
2022/12/04 02:50:14;;;;;;;27.95;13.75;;;1.30;99.90;;;;;;5080656;28;20375;-77
2022/12/04 02:52:46;;;;;;;27.23;14.10;;;1.30;99.90;;;;;;5075461;28;20650;-77
2022/12/04 02:55:18;;;;;;;29.65;14.65;;;1.30;99.90;;;;;;5081349;28;20030;-77
2022/12/04 02:57:49;;;;;;;29.55;14.57;;;1.20;99.90;;;;;;5083839;28;20093;-77
2022/12/04 03:00:16;;;;;;;28.70;14.63;;;1.20;99.90;;;;;;5084581;28;20111;-77
2022/12/04 03:02:55;;;;;;;30.05;15.13;;;1.10;99.90;;;;;;5081599;28;20032;-77
2022/12/04 03:05:28;;;;;;;30.30;14.80;;;1.10;99.90;;;;;;5076192;28;20107;-77
2022/12/04 03:07:59;;;;;;;;;;;1.10;99.90;;;;;;5079891;28;20025;-77
2022/12/04 03:10:31;;;;;;;29.02;14.13;;;1.20;99.90;;;;;;5085421;28;19904;-77
2022/12/04 03:12:57;;;;;;;29.17;14.65;;;1.20;99.90;;;;;;5082080;28;20040;-77
2022/12/04 03:15:32;;;;;;;31.80;15.05;;;1.20;99.90;;;;;;5089721;28;20056;-77
2022/12/04 03:18:03;;;;;;;29.63;15.50;;;1.10;99.90;;;;;;5083694;28;20028;-77
2022/12/04 03:20:32;;;;;;;29.60;15.30;;;1.20;99.90;;;;;;5082396;28;20020;-77
2022/12/04 03:23:03;;;;;;;32.70;15.75;;;1.20;99.90;;;;;;5082904;28;20066;-77
2022/12/04 03:25:36;;;;;;;31.95;15.98;;;1.20;99.90;;;;;;5087570;28;20084;-77
2022/12/04 03:28:12;;;;;;;29.55;15.10;;;1.10;99.90;;;;;;5080655;28;20039;-77
2022/12/04 03:30:53;;;;;;;33.75;16.70;;;1.10;99.90;;;;;;5081032;28;20050;-77
2022/12/04 03:33:23;;;;;;;31.73;16.15;;;1.20;99.90;;;;;;5078205;28;20110;-76
2022/12/04 03:35:49;;;;;;;33.95;17.40;;;1.20;99.90;;;;;;5086452;28;20059;-76
2022/12/04 03:38:26;;;;;;;35.35;17.45;;;1.20;99.90;;;;;;5078977;28;20143;-77
2022/12/04 03:41:02;;;;;;;32.85;16.73;;;1.20;99.90;;;;;;5077292;28;20030;-77
2022/12/04 03:43:49;;;;;;;37.17;16.45;;;1.30;99.90;;;;;;5081259;28;20036;-77
2022/12/04 03:46:34;;;;;;;35.63;17.42;;;1.30;99.90;;;;;;5085790;28;20346;-77
2022/12/04 03:49:10;;;;;;;34.10;17.42;;;1.30;99.90;;;;;;5086390;28;20444;-77
2022/12/04 03:51:43;;;;;;;34.95;17.73;;;1.40;99.90;;;;;;5083030;28;20024;-77
2022/12/04 03:54:20;;;;;;;38.58;18.15;;;1.40;99.90;;;;;;5074858;28;20028;-77
2022/12/04 03:57:13;;;;;;;36.00;17.40;;;1.40;99.90;;;;;;5082850;28;20031;-77
2022/12/04 03:59:46;;;;;;;37.83;18.35;;;1.40;99.90;;;;;;5087507;28;20036;-78
2022/12/04 04:02:15;;;;;;;26.13;13.18;;;1.40;99.90;;;;;;5088951;28;20035;-77
2022/12/04 04:04:45;;;;;;;34.28;17.50;;;1.30;99.90;;;;;;5085521;28;20117;-77
2022/12/04 04:07:22;;;;;;;34.67;17.10;;;1.30;99.90;;;;;;5080603;28;20078;-78
2022/12/04 04:09:52;;;;;;;36.38;17.92;;;1.30;99.90;;;;;;5094108;28;20035;-78
2022/12/04 04:12:21;;;;;;;34.63;17.88;;;1.20;99.90;;;;;;5084551;28;20070;-77
2022/12/04 04:26:34;;;;;;;39.42;18.92;;;1.20;99.90;;;;;;5081275;28;20085;-77
2022/12/04 04:29:00;;;;;;;36.80;18.15;;;1.30;99.90;;;;;;5085259;28;20028;-78
2022/12/04 04:31:39;;;;;;;37.55;19.05;;;1.30;99.90;;;;;;5088827;28;20439;-78
2022/12/04 04:34:43;;;;;;;38.25;18.48;;;1.30;99.90;;;;;;5079360;28;20111;-77
2022/12/04 04:37:38;;;;;;;38.30;18.98;;;1.30;99.90;;;;;;5089678;28;20084;-78
2022/12/04 04:40:20;;;;;;;35.65;18.48;;;1.30;99.90;;;;;;5086389;28;20032;-78
2022/12/04 04:42:52;;;;;;;35.67;17.48;;;1.30;99.90;;;;;;5081093;28;20481;-78
2022/12/04 04:45:41;;;;;;;38.45;18.55;;;1.30;99.90;;;;;;5080887;28;20051;-78
2022/12/04 04:48:12;;;;;;;38.08;18.77;;;1.40;99.90;;;;;;5073943;28;20036;-77
2022/12/04 04:50:38;;;;;;;35.72;18.00;;;1.40;99.90;;;;;;5081259;28;20418;-77
2022/12/04 04:53:10;;;;;;;35.53;18.38;;;1.40;99.90;;;;;;5079188;28;20571;-77
2022/12/04 04:55:37;;;;;;;38.03;18.87;;;1.40;99.90;;;;;;5075405;28;20032;-77
2022/12/04 04:58:20;;;;;;;36.85;17.88;;;1.40;99.90;;;;;;5078620;28;20031;-77
2022/12/04 05:00:59;;;;;;;37.53;18.73;;;1.40;99.90;;;;;;5078434;28;20027;-77
2022/12/04 05:03:26;;;;;;;39.30;18.48;;;1.40;99.90;;;;;;5075212;28;20020;-77
2022/12/04 05:05:52;;;;;;;37.38;18.60;;;1.50;99.90;;;;;;5080927;28;20385;-77
2022/12/04 05:08:17;;;;;;;37.40;18.10;;;1.50;99.90;;;;;;5090597;28;20027;-77
2022/12/04 05:10:43;;;;;;;38.45;18.13;;;1.50;99.90;;;;;;5085403;28;20020;-78
2022/12/04 05:13:11;;;;;;;38.92;19.25;;;1.50;99.90;;;;;;5080091;28;20024;-77
2022/12/04 05:15:37;;;;;;;36.90;18.20;;;1.50;99.90;;;;;;5082026;28;20038;-77
2022/12/04 05:18:03;;;;;;;40.58;18.92;;;1.50;99.90;;;;;;5091772;28;20032;-78
2022/12/04 05:20:28;;;;;;;39.42;18.33;;;1.50;99.90;;;;;;5077935;28;20016;-78
2022/12/04 05:22:54;;;;;;;36.90;18.08;;;1.50;99.90;;;;;;5079710;28;20571;-77
2022/12/04 05:25:20;;;;;;;41.10;19.88;;;1.50;99.90;;;;;;5078103;28;20032;-77
2022/12/04 05:27:45;;;;;;;41.20;19.15;;;1.50;99.90;;;;;;5078873;28;20054;-78
2022/12/04 05:30:11;;;;;;;42.75;21.30;;;1.50;99.90;;;;;;5081605;28;20024;-77
2022/12/04 05:32:37;;;;;;;39.70;19.67;;;1.50;99.90;;;;;;5086971;28;20044;-77
2022/12/04 05:35:03;;;;;;;38.15;18.92;;;;;;;;;;5080327;28;20032;-77
2022/12/04 05:37:29;;;;;;;40.80;20.38;;;2.40;99.90;;;;;;5083305;28;20050;-77
2022/12/04 05:39:54;;;;;;;43.50;21.65;;;1.50;99.90;;;;;;5081504;28;20483;-77
2022/12/04 05:42:20;;;;;;;41.13;20.70;;;1.50;99.90;;;;;;5081780;28;20645;-77
2022/12/04 05:44:47;;;;;;;44.45;22.00;;;1.50;99.90;;;;;;5089741;28;20553;-77
2022/12/04 05:47:13;;;;;;;45.00;22.17;;;1.50;99.90;;;;;;5083278;28;20024;-77
2022/12/04 05:49:38;;;;;;;46.63;22.70;;;1.50;99.90;;;;;;5084613;28;20099;-76
2022/12/04 05:52:04;;;;;;;42.42;20.65;;;1.50;99.90;;;;;;5081165;28;20107;-77
2022/12/04 05:54:30;;;;;;;46.38;21.95;;;1.40;99.90;;;;;;5074401;28;20496;-77
2022/12/04 05:56:56;;;;;;;40.72;21.15;;;1.40;99.90;;;;;;5081192;28;20061;-75
2022/12/04 05:59:21;;;;;;;45.22;22.67;;;1.40;99.90;;;;;;5075090;28;20036;-77
2022/12/04 06:01:47;;;;;;;43.40;21.23;;;1.40;99.90;;;;;;5084372;28;20105;-77
2022/12/04 06:04:13;;;;;;;41.78;20.20;;;1.50;99.90;;;;;;5076633;28;20526;-77
2022/12/04 06:06:38;;;;;;;40.42;21.45;;;1.40;99.90;;;;;;5081191;28;20028;-76
2022/12/04 06:09:05;;;;;;;43.00;21.38;;;1.50;99.90;;;;;;5080478;28;20027;-76
2022/12/04 06:11:34;;;;;;;40.20;20.73;;;1.50;99.90;;;;;;5082874;28;20036;-77
2022/12/04 06:14:02;;;;;;;41.67;21.02;;;1.50;99.90;;;;;;5079766;28;20437;-77
2022/12/04 06:16:32;;;;;;;45.20;21.45;;;1.50;99.90;;;;;;5084648;28;20058;-77
2022/12/04 06:19:00;;;;;;;42.13;21.27;;;1.50;99.90;;;;;;5080459;28;20047;-77
2022/12/04 06:21:28;;;;;;;43.38;20.83;;;1.50;99.90;;;;;;5079650;28;20051;-77
2022/12/04 06:23:54;;;;;;;41.50;20.33;;;1.50;99.90;;;;;;5091054;28;20019;-77
2022/12/04 06:26:22;;;;;;;41.35;21.80;;;1.50;99.90;;;;;;5083594;28;20119;-76
2022/12/04 06:28:48;;;;;;;41.72;20.75;;;1.60;99.90;;;;;;5086293;28;20016;-76
2022/12/04 06:31:15;;;;;;;42.78;21.80;;;1.60;99.90;;;;;;5081970;28;20710;-76
2022/12/04 06:33:41;;;;;;;43.22;20.92;;;1.60;99.90;;;;;;5094844;28;20100;-77
2022/12/04 06:36:10;;;;;;;36.63;18.17;;;1.50;99.90;;;;;;5084888;28;20048;-77
2022/12/04 06:38:36;;;;;;;42.50;20.80;;;1.60;99.90;;;;;;5088694;28;20503;-77
2022/12/04 06:41:07;;;;;;;42.10;20.77;;;1.60;99.90;;;;;;5087138;28;20023;-77
2022/12/04 06:43:33;;;;;;;36.92;19.58;;;1.60;99.90;;;;;;5084804;28;20394;-77
2022/12/04 06:46:08;;;;;;;38.28;19.45;;;1.60;99.90;;;;;;5084225;28;20130;-77
2022/12/04 06:48:34;;;;;;;40.33;19.77;;;1.60;99.90;;;;;;5084043;28;20073;-77
2022/12/04 06:51:08;;;;;;;40.38;20.15;;;1.60;99.90;;;;;;5085896;28;20028;-77
2022/12/04 06:53:34;;;;;;;37.72;19.50;;;1.50;99.90;;;;;;5084845;28;20039;-77
2022/12/04 06:56:03;;;;;;;39.03;19.45;;;1.60;99.90;;;;;;5086563;28;20028;-77
2022/12/04 06:58:29;;;;;;;39.55;19.30;;;1.60;99.90;;;;;;5084137;28;20608;-77
2022/12/04 07:00:55;;;;;;;41.35;20.13;;;1.60;99.90;;;;;;5083369;28;20497;-77
2022/12/04 07:03:22;;;;;;;39.50;19.20;;;1.60;99.90;;;;;;5074855;28;20013;-77
2022/12/04 07:05:48;;;;;;;35.45;18.95;;;1.60;99.90;;;;;;5086311;28;20024;-77
2022/12/04 07:08:14;;;;;;;38.88;18.30;;;1.70;99.90;;;;;;5090256;28;20034;-77
2022/12/04 07:10:40;;;;;;;41.53;19.27;;;1.60;99.90;;;;;;5081839;28;20051;-76
2022/12/04 07:13:06;;;;;;;36.45;19.13;;;1.60;99.90;;;;;;5082853;28;20024;-77
2022/12/04 07:15:33;;;;;;;35.35;18.45;;;1.60;99.90;;;;;;5079555;28;20036;-77
2022/12/04 07:17:59;;;;;;;31.60;17.38;;;1.60;99.90;;;;;;5078398;28;20108;-77
2022/12/04 07:20:25;;;;;;;32.83;16.75;;;1.60;99.90;;;;;;5070230;28;20025;-76
2022/12/04 07:22:51;;;;;;;36.92;18.35;;;1.70;99.90;;;;;;5081423;28;20031;-77
2022/12/04 07:25:17;;;;;;;32.78;17.17;;;1.70;99.90;;;;;;5083272;28;20023;-77
2022/12/04 07:27:42;;;;;;;33.65;18.08;;;1.70;99.90;;;;;;5085811;28;20024;-76
2022/12/04 07:30:09;;;;;;;35.80;17.30;;;1.70;99.90;;;;;;5085404;28;20059;-77
2022/12/04 07:32:35;;;;;;;35.47;17.60;;;1.70;99.90;;;;;;5083838;28;20032;-77
2022/12/04 07:35:01;;;;;;;32.17;16.77;;;1.80;99.90;;;;;;5086765;28;20032;-77
2022/12/04 07:37:26;;;;;;;33.50;17.13;;;1.70;99.90;;;;;;5083304;28;20036;-76
2022/12/04 07:39:52;;;;;;;34.63;17.15;;;1.70;99.90;;;;;;5082160;28;20962;-76
2022/12/04 07:42:19;;;;;;;33.92;17.77;;;1.70;99.90;;;;;;5075014;28;20032;-77
2022/12/04 07:44:45;;;;;;;34.90;18.67;;;1.70;99.90;;;;;;5061170;28;20491;-77
2022/12/04 07:47:11;;;;;;;39.13;19.13;;;1.80;99.90;;;;;;5055675;28;20083;-77
2022/12/04 07:49:36;;;;;;;34.70;18.95;;;1.60;99.90;;;;;;5059772;28;20047;-77
2022/12/04 07:52:02;;;;;;;36.10;18.75;;;1.70;99.90;;;;;;5059958;28;20546;-77
2022/12/04 07:54:28;;;;;;;34.83;17.92;;;1.70;99.90;;;;;;5058958;28;20039;-77
2022/12/04 07:56:54;;;;;;;33.72;17.27;;;1.70;99.90;;;;;;5062745;28;20021;-77
2022/12/04 07:59:19;;;;;;;34.67;17.17;;;1.70;99.90;;;;;;5062970;28;20067;-77
2022/12/04 08:01:45;;;;;;;35.22;17.27;;;1.70;99.90;;;;;;5053300;28;20017;-75
2022/12/04 08:04:11;;;;;;;32.05;16.67;;;1.70;99.90;;;;;;5059607;28;20560;-77
2022/12/04 08:06:38;;;;;;;32.40;16.85;;;1.70;99.90;;;;;;5057002;28;20084;-76
2022/12/04 08:09:04;;;;;;;30.05;14.27;;;1.80;99.90;;;;;;5057225;28;20034;-77
2022/12/04 08:11:30;;;;;;;28.63;15.52;;;1.80;99.90;;;;;;4347899;28;10000918;-79
2022/12/04 08:14:01;;;;;;;29.55;15.55;;;1.80;99.90;;;;;;5043065;28;20040;-75
2022/12/04 08:16:28;;;;;;;25.75;14.27;;;1.80;99.90;;;;;;5054216;28;20571;-78
2022/12/04 08:18:55;;;;;;;26.10;14.20;;;1.80;99.90;;;;;;5040204;28;20044;-77
2022/12/04 08:21:23;;;;;;;27.33;14.35;;;1.80;99.90;;;;;;5046039;28;20417;-84
2022/12/04 08:23:51;;;;;;;26.30;14.15;;;1.80;99.90;;;;;;5043215;28;20032;-81
2022/12/04 08:26:19;;;;;;;25.65;13.88;;;1.80;99.90;;;;;;5048912;28;20033;-81
2022/12/04 08:28:45;;;;;;;28.08;14.60;;;1.80;99.90;;;;;;5047924;28;20021;-84
2022/12/04 08:31:19;;;;;;;23.92;13.02;;;1.80;99.90;;;;;;5050719;28;20016;-84
2022/12/04 08:33:47;;;;;;;24.73;13.00;;;1.80;99.90;;;;;;5043095;28;20052;-78
2022/12/04 08:36:16;;;;;;;22.52;12.43;;;1.80;99.90;;;;;;5045236;28;20025;-76
2022/12/04 08:38:41;;;;;;;23.42;11.68;;;1.80;99.90;;;;;;5046376;28;20040;-75
2022/12/04 08:41:10;;;;;;;21.38;11.27;;;1.90;99.90;;;;;;5052077;28;20035;-77
2022/12/04 08:43:35;;;;;;;22.50;11.95;;;1.80;99.90;;;;;;5052921;28;20169;-76
2022/12/04 08:46:04;;;;;;;23.38;13.10;;;2.00;99.90;;;;;;5074755;28;20027;-75
2022/12/04 08:48:30;;;;;;;25.38;13.77;;;1.80;99.90;;;;;;5074196;28;20474;-76
2022/12/04 08:50:56;;;;;;;24.30;13.45;;;1.80;99.90;;;;;;5065402;28;20055;-75
2022/12/04 08:53:23;;;;;;;23.50;12.50;;;1.90;99.90;;;;;;5078286;28;20033;-75
2022/12/04 08:55:49;;;;;;;26.52;13.40;;;1.80;99.90;;;;;;5081628;28;20036;-75
2022/12/04 08:58:15;;;;;;;24.08;13.38;;;1.90;99.90;;;;;;5080597;28;20122;-75
2022/12/04 09:00:41;;;;;;;27.30;12.98;;;1.90;99.90;;;;;;5077268;28;20477;-75
2022/12/04 09:03:11;;;;;;;24.02;13.50;;;1.90;99.90;;;;;;5075442;28;20498;-76
2022/12/04 09:05:37;;;;;;;26.05;13.27;;;1.90;99.90;;;;;;5076543;28;20374;-75
2022/12/04 09:08:03;;;;;;;25.15;13.27;;;1.90;99.90;;;;;;5081283;28;20038;-75
2022/12/04 09:10:29;;;;;;;24.50;13.60;;;1.90;99.90;;;;;;5080426;28;20023;-74
2022/12/04 09:12:54;;;;;;;27.13;14.13;;;1.90;99.90;;;;;;5079102;28;20499;-75
2022/12/04 09:15:20;;;;;;;30.15;14.95;;;1.90;99.90;;;;;;5078019;28;20128;-75
2022/12/04 09:17:45;;;;;;;26.13;14.73;;;2.00;99.90;;;;;;5079871;28;20028;-74
2022/12/04 09:20:11;;;;;;;29.02;14.02;;;2.00;99.90;;;;;;5075032;28;20024;-75
2022/12/04 09:22:37;;;;;;;27.50;15.25;;;2.00;99.90;;;;;;5080877;28;20028;-74
2022/12/04 09:25:04;;;;;;;28.48;15.00;;;2.00;99.90;;;;;;5076719;28;20576;-74
2022/12/04 09:27:34;;;;;;;29.23;15.38;;;2.10;99.90;;;;;;5077946;28;20456;-75
2022/12/04 09:30:00;;;;;;;27.50;15.18;;;2.20;99.90;;;;;;5077898;28;20048;-75
2022/12/04 09:32:25;;;;;;;31.05;15.10;;;2.20;99.90;;;;;;5077830;28;20090;-75
2022/12/04 09:34:51;;;;;;;27.88;15.48;;;2.20;99.90;;;;;;5068954;28;20016;-77
2022/12/04 09:37:17;;;;;;;28.63;15.35;;;2.20;99.90;;;;;;5076576;28;20028;-75
2022/12/04 09:39:44;;;;;;;27.27;15.05;;;2.30;99.90;;;;;;5080926;28;20099;-75
2022/12/04 09:42:18;;;;;;;29.40;15.38;;;2.30;99.90;;;;;;5069039;28;20032;-75
2022/12/04 09:44:47;;;;;;;29.17;15.52;;;2.30;99.90;;;;;;5075584;28;20440;-76
2022/12/04 09:47:33;;;;;;;29.10;16.08;;;2.30;99.90;;;;;;5083437;28;20042;-75
2022/12/04 09:50:17;;;;;;;28.08;15.80;;;2.40;99.90;;;;;;5084203;28;20316;-76
2022/12/04 09:52:42;;;;;;;31.17;16.10;;;2.40;99.90;;;;;;5080232;28;20032;-76
2022/12/04 09:55:50;;;;;;;31.40;15.98;;;2.30;99.90;;;;;;5077087;28;20074;-76
2022/12/04 09:58:51;;;;;;;30.55;15.95;;;2.30;99.90;;;;;;5075818;28;20063;-76
2022/12/04 10:01:38;;;;;;;31.33;16.15;;;2.30;99.90;;;;;;5079095;28;20032;-76
2022/12/04 10:04:04;;;;;;;30.70;16.58;;;2.30;99.90;;;;;;5079115;28;20081;-77
2022/12/04 10:06:46;;;;;;;29.55;16.08;;;2.30;99.90;;;;;;5079828;28;20047;-76
2022/12/04 10:09:19;;;;;;;35.08;17.63;;;2.30;99.90;;;;;;5072841;28;20549;-76
2022/12/04 10:11:58;;;;;;;30.15;16.98;;;2.30;99.90;;;;;;5076712;28;20024;-76
2022/12/04 10:14:33;;;;;;;33.78;17.52;;;2.30;99.90;;;;;;5081964;28;20093;-78
2022/12/04 10:17:36;;;;;;;31.48;16.85;;;2.30;99.90;;;;;;5080528;28;20077;-76
2022/12/04 10:20:16;;;;;;;32.40;17.00;;;2.30;99.90;;;;;;5073304;28;20107;-75
2022/12/04 10:23:27;;;;;;;32.85;17.70;;;2.30;99.90;;;;;;5077483;28;20036;-75
2022/12/04 10:25:54;;;;;;;36.55;17.65;;;2.30;99.90;;;;;;5042932;28;20063;-74
2022/12/04 10:28:35;;;;;;;35.08;18.98;;;2.30;99.90;;;;;;5082975;28;20027;-75
2022/12/04 10:31:03;;;;;;;37.05;19.45;;;2.30;99.90;;;;;;5078632;28;20040;-75
2022/12/04 10:33:56;;;;;;;32.75;17.85;;;2.30;99.90;;;;;;5077511;28;20036;-77
2022/12/04 10:36:27;;;;;;;25.90;14.48;;;2.30;99.90;;;;;;5078648;28;20043;-77
2022/12/04 10:38:57;;;;;;;34.65;18.52;;;2.30;99.90;;;;;;5086938;28;20032;-77
2022/12/04 10:41:46;;;;;;;34.92;18.85;;;2.30;99.90;;;;;;5086711;28;20024;-76
2022/12/04 10:44:14;;;;;;;37.22;19.27;;;2.30;99.90;;;;;;5079317;28;20036;-76
2022/12/04 10:46:40;;;;;;;36.22;18.58;;;2.30;99.90;;;;;;5059525;28;20036;-77
2022/12/04 10:49:21;;;;;;;37.72;19.10;;;2.30;99.90;;;;;;5058098;28;20203;-76
2022/12/04 10:51:47;;;;;;;37.28;18.35;;;2.30;99.90;;;;;;5060919;28;20048;-75
2022/12/04 10:54:34;;;;;;;36.38;19.15;;;2.30;99.90;;;;;;5058703;28;20382;-76
2022/12/04 10:57:02;;;;;;;35.85;18.38;;;2.30;99.90;;;;;;5047724;28;20029;-75
2022/12/04 10:59:28;;;;;;;39.25;20.02;;;2.30;99.90;;;;;;5060228;28;20032;-75
2022/12/04 11:02:04;;;;;;;37.85;19.48;;;2.40;99.90;;;;;;5057958;28;20030;-75
2022/12/04 11:04:32;;;;;;;39.28;21.17;;;2.30;99.90;;;;;;5061659;28;20114;-76
2022/12/04 11:07:08;;;;;;;37.92;19.95;;;2.30;99.90;;;;;;5062692;28;20028;-75
2022/12/04 11:09:34;;;;;;;38.13;19.23;;;2.40;99.90;;;;;;5065435;28;20806;-75
2022/12/04 11:12:20;;;;;;;38.88;20.65;;;2.40;99.90;;;;;;5058857;28;20127;-75
2022/12/04 11:14:46;;;;;;;41.45;20.52;;;2.40;99.90;;;;;;5045457;28;20460;-75
2022/12/04 11:17:18;;;;;;;37.50;20.20;;;2.40;99.90;;;;;;5073540;28;20028;-74
2022/12/04 11:19:44;;;;;;;36.28;19.20;;;2.40;99.90;;;;;;5059481;28;20402;-75
2022/12/04 11:22:16;;;;;;;39.92;21.08;;;2.40;99.90;;;;;;5053326;28;20033;-75
2022/12/04 11:24:48;;;;;;;34.70;18.85;;;2.40;99.90;;;;;;5063516;28;20134;-74
2022/12/04 11:27:34;;;;;;;36.08;19.15;;;2.40;99.90;;;;;;5059680;28;20028;-74
2022/12/04 11:30:06;;;;;;;40.03;20.13;;;2.50;99.90;;;;;;5065365;28;20445;-74
2022/12/04 11:32:33;;;;;;;34.47;19.48;;;2.50;99.90;;;;;;5058898;28;20048;-73
2022/12/04 11:35:23;;;;;;;38.53;20.17;;;2.50;99.90;;;;;;5052970;28;20024;-74
2022/12/04 11:38:01;;;;;;;35.55;20.05;;;2.50;99.90;;;;;;5049673;28;20556;-73
2022/12/04 11:40:27;;;;;;;36.22;20.02;;;2.50;99.90;;;;;;5059372;28;20024;-73
2022/12/04 11:43:11;;;;;;;37.05;19.95;;;2.50;99.90;;;;;;5059186;28;20021;-74
2022/12/04 11:45:37;;;;;;;36.97;19.33;;;2.50;99.90;;;;;;5057906;28;20517;-73
2022/12/04 11:48:13;;;;;;;38.92;20.50;;;2.40;99.90;;;;;;5064251;28;20667;-74
2022/12/04 11:50:46;;;;;;;34.20;18.95;;;2.50;99.90;;;;;;5056931;28;20119;-74
2022/12/04 11:53:19;;;;;;;40.63;21.13;;;2.40;99.90;;;;;;5059838;28;20029;-74
2022/12/04 11:56:16;;;;;;;36.25;20.27;;;2.50;99.90;;;;;;5060506;28;20033;-73
2022/12/04 11:59:21;;;;;;;36.08;20.10;;;2.50;99.90;;;;;;5062894;28;20054;-73
2022/12/04 12:02:15;;;;;;;39.17;20.25;;;2.50;99.90;;;;;;5033962;28;20041;-74
2022/12/04 12:05:12;;;;;;;39.80;20.63;;;2.50;99.90;;;;;;5043001;28;20179;-73
2022/12/04 12:07:46;;;;;;;36.70;19.83;;;2.50;99.90;;;;;;5066657;28;20078;-73
2022/12/04 12:10:23;;;;;;;38.63;20.23;;;2.50;99.90;;;;;;5066768;28;20039;-75
2022/12/04 12:13:06;;;;;;;40.63;20.10;;;2.50;99.90;;;;;;5052483;28;20111;-75
2022/12/04 12:15:52;;;;;;;36.25;19.45;;;2.50;99.90;;;;;;5056992;28;20106;-75
2022/12/04 12:18:39;;;;;;;38.45;20.95;;;2.50;99.90;;;;;;4359379;28;10000785;-70
2022/12/04 12:21:14;;;;;;;37.22;20.95;;;2.50;99.90;;;;;;5059477;28;20410;-70
2022/12/04 12:24:06;;;;;;;38.17;21.58;;;2.40;99.90;;;;;;5053255;28;20032;-71
2022/12/04 12:27:04;;;;;;;39.70;20.98;;;2.40;99.90;;;;;;5056683;28;20056;-71
2022/12/04 12:29:48;;;;;;;38.15;19.58;;;2.40;99.90;;;;;;5060306;28;20036;-71
2022/12/04 12:32:32;;;;;;;37.35;20.85;;;2.40;99.90;;;;;;5056545;28;20119;-71
2022/12/04 12:34:59;;;;;;;40.67;21.33;;;2.40;99.90;;;;;;5055450;28;20023;-71
2022/12/04 12:37:45;;;;;;;40.05;20.48;;;2.40;99.90;;;;;;5056297;28;20037;-70
2022/12/04 12:40:29;;;;;;;40.55;21.42;;;2.40;99.90;;;;;;5057388;28;20028;-70
2022/12/04 12:43:04;;;;;;;39.67;20.83;;;2.40;99.90;;;;;;5062157;28;20029;-71
2022/12/04 12:45:40;;;;;;;39.40;20.92;;;2.40;99.90;;;;;;5078814;28;20040;-71
2022/12/04 12:48:24;;;;;;;40.00;21.23;;;2.40;99.90;;;;;;5078384;28;20053;-70
2022/12/04 12:51:02;;;;;;;39.00;21.13;;;2.40;99.90;;;;;;5081861;28;20040;-70
2022/12/04 12:53:35;;;;;;;42.60;21.27;;;2.40;99.90;;;;;;5077586;28;20739;-70
2022/12/04 12:56:03;;;;;;;42.97;21.75;;;2.50;99.90;;;;;;5076824;28;20039;-70
2022/12/04 12:58:41;;;;;;;41.53;22.80;;;2.50;99.90;;;;;;5075479;28;20770;-70
2022/12/04 13:01:15;;;;;;;40.42;21.88;;;2.40;99.90;;;;;;5076142;28;20081;-70
2022/12/04 13:03:53;;;;;;;40.28;21.48;;;2.40;99.90;;;;;;5075771;28;20024;-70
2022/12/04 13:06:29;;;;;;;42.63;21.88;;;2.40;99.90;;;;;;5080502;28;20086;-70
2022/12/04 13:08:54;;;;;;;40.28;21.90;;;2.50;99.90;;;;;;5075082;28;20047;-70
2022/12/04 13:11:23;;;;;;;41.33;22.73;;;2.40;99.90;;;;;;5079752;28;20057;-71